createdAt,value
2018-06-11T00:01:38.416Z,27.63
2018-06-11T00:04:06.890Z,28.00
2018-06-11T00:06:35.018Z,31.47
2018-06-11T00:09:03.788Z,31.50
2018-06-11T00:11:32.287Z,28.23
2018-06-11T00:14:00.711Z,31.73
2018-06-11T00:16:29.173Z,30.93
2018-06-11T00:18:57.649Z,29.80
2018-06-11T00:21:26.121Z,30.43
2018-06-11T00:23:54.582Z,28.63
2018-06-11T00:26:23.074Z,30.10
2018-06-11T00:28:51.532Z,29.97
2018-06-11T00:31:20.037Z,30.40
2018-06-11T00:33:48.199Z,29.90
2018-06-11T00:36:16.671Z,34.60
2018-06-11T00:38:45.122Z,31.93
2018-06-11T00:41:13.598Z,32.53
2018-06-11T00:43:42.461Z,29.50
2018-06-11T00:46:10.921Z,30.87
2018-06-11T00:48:39.379Z,32.17
2018-06-11T00:51:07.833Z,29.67
2018-06-11T00:53:36.277Z,32.57
2018-06-11T00:56:06.401Z,28.27
2018-06-11T00:58:34.567Z,28.53
2018-06-11T01:01:03.239Z,27.83
2018-06-11T01:03:31.756Z,27.47
2018-06-11T01:06:00.239Z,29.30
2018-06-11T01:08:28.690Z,27.83
2018-06-11T01:10:57.149Z,27.97
2018-06-11T01:13:25.599Z,30.23
2018-06-11T01:15:54.079Z,28.93
2018-06-11T01:18:22.544Z,31.00
2018-06-11T01:20:50.982Z,30.50
2018-06-11T01:23:19.449Z,29.50
2018-06-11T01:25:47.889Z,28.73
2018-06-11T01:28:16.361Z,30.83
2018-06-11T01:30:44.805Z,36.07
2018-06-11T01:33:13.294Z,31.03
2018-06-11T01:35:41.766Z,33.67
2018-06-11T01:38:10.247Z,34.27
2018-06-11T01:40:38.666Z,38.17
2018-06-11T01:43:07.126Z,34.60
2018-06-11T01:45:35.551Z,34.23
2018-06-11T01:48:04.017Z,35.17
2018-06-11T01:50:32.450Z,33.77
2018-06-11T01:53:00.902Z,35.87
2018-06-11T01:55:29.356Z,36.00
2018-06-11T01:57:57.827Z,39.37
2018-06-11T02:00:26.258Z,34.90
2018-06-11T02:02:54.709Z,36.03
2018-06-11T02:05:23.156Z,35.90
2018-06-11T02:07:51.617Z,34.23
2018-06-11T02:10:19.771Z,34.57
2018-06-11T02:12:48.237Z,31.23
2018-06-11T02:15:16.681Z,29.63
2018-06-11T02:17:45.394Z,28.43
2018-06-11T02:20:13.874Z,30.83
2018-06-11T02:22:42.334Z,31.57
2018-06-11T02:25:10.776Z,34.57
2018-06-11T02:27:39.261Z,34.20
2018-06-11T02:30:07.701Z,33.20
2018-06-11T02:32:36.167Z,34.33
2018-06-11T02:35:04.657Z,36.17
2018-06-11T02:37:33.115Z,35.07
2018-06-11T02:40:01.574Z,37.37
2018-06-11T02:42:30.050Z,36.87
2018-06-11T02:44:58.534Z,35.50
2018-06-11T02:47:26.980Z,37.40
2018-06-11T02:49:55.419Z,36.93
2018-06-11T02:52:23.895Z,36.53
2018-06-11T02:54:52.331Z,37.07
2018-06-11T02:57:20.513Z,36.10
2018-06-11T02:59:48.979Z,36.50
2018-06-11T03:02:17.427Z,37.10
2018-06-11T03:04:45.881Z,35.03
2018-06-11T03:07:14.330Z,37.27
2018-06-11T03:09:42.460Z,36.53
2018-06-11T03:12:10.942Z,35.70
2018-06-11T03:14:39.385Z,35.63
2018-06-11T03:17:07.862Z,36.27
2018-06-11T03:19:36.298Z,38.37
2018-06-11T03:22:04.818Z,39.13
2018-06-11T03:24:33.244Z,39.37
2018-06-11T03:27:01.721Z,37.23
2018-06-11T03:29:30.149Z,40.77
2018-06-11T03:31:58.567Z,39.20
2018-06-11T03:34:27.047Z,36.23
2018-06-11T03:36:55.503Z,35.37
2018-06-11T03:39:23.666Z,34.73
2018-06-11T03:41:52.568Z,34.17
2018-06-11T03:44:21.034Z,32.00
2018-06-11T03:46:49.462Z,37.30
2018-06-11T03:49:17.913Z,38.47
2018-06-11T03:51:46.353Z,39.53
2018-06-11T03:54:14.507Z,36.07
2018-06-11T03:56:42.927Z,37.40
2018-06-11T03:59:11.393Z,41.30
2018-06-11T04:01:39.842Z,37.53
2018-06-11T04:04:08.295Z,33.23
2018-06-11T04:06:36.731Z,35.57
2018-06-11T04:09:07.122Z,32.47
2018-06-11T04:11:35.734Z,33.40
2018-06-11T04:14:03.917Z,34.33
2018-06-11T04:16:32.037Z,35.93
2018-06-11T04:19:00.506Z,33.57
2018-06-11T04:21:28.949Z,33.33
2018-06-11T04:23:57.371Z,32.80
2018-06-11T04:26:25.780Z,34.87
2018-06-11T04:28:54.246Z,35.70
2018-06-11T04:31:22.690Z,35.47
2018-06-11T04:33:51.123Z,36.43
2018-06-11T04:36:19.571Z,37.23
2018-06-11T04:38:48.050Z,40.20
2018-06-11T04:41:16.514Z,36.53
2018-06-11T04:43:44.998Z,39.33
2018-06-11T04:46:13.425Z,36.10
2018-06-11T04:48:42.101Z,36.80
2018-06-11T04:51:10.620Z,36.23
2018-06-11T04:53:39.074Z,32.70
2018-06-11T04:56:07.525Z,33.53
2018-06-11T04:58:35.974Z,34.33
2018-06-11T05:01:04.384Z,34.33
2018-06-11T05:03:32.842Z,38.63
2018-06-11T05:06:01.281Z,36.67
2018-06-11T05:08:29.811Z,41.27
2018-06-11T05:10:59.321Z,44.70
2018-06-11T05:13:28.158Z,44.87
2018-06-11T05:15:56.733Z,38.90
2018-06-11T05:18:25.518Z,34.17
2018-06-11T05:20:53.669Z,34.60
2018-06-11T05:23:22.550Z,33.50
2018-06-11T05:25:51.078Z,32.97
2018-06-11T05:28:19.546Z,36.07
2018-06-11T05:30:48.055Z,37.63
2018-06-11T05:33:16.510Z,33.90
2018-06-11T05:35:44.661Z,33.83
2018-06-11T05:38:13.117Z,35.37
2018-06-11T05:40:41.548Z,36.87
2018-06-11T05:43:10.022Z,36.73
2018-06-11T05:45:38.148Z,36.67
2018-06-11T05:48:06.583Z,36.90
2018-06-11T05:50:35.010Z,38.43
2018-06-11T05:53:03.493Z,35.77
2018-06-11T05:55:31.930Z,39.60
2018-06-11T05:58:00.994Z,39.53
2018-06-11T06:00:29.141Z,36.87
2018-06-11T06:02:57.573Z,38.53
2018-06-11T06:05:26.026Z,36.17
2018-06-11T06:07:54.492Z,41.93
2018-06-11T06:10:22.995Z,35.47
2018-06-11T06:12:51.136Z,34.43
2018-06-11T06:15:19.569Z,38.50
2018-06-11T06:17:47.997Z,36.70
2018-06-11T06:20:16.425Z,35.47
2018-06-11T06:22:44.846Z,34.17
2018-06-11T06:25:13.315Z,33.90
2018-06-11T06:27:41.729Z,35.80
2018-06-11T06:30:10.166Z,33.90
2018-06-11T06:32:38.575Z,35.30
2018-06-11T06:35:07.075Z,33.73
2018-06-11T06:37:35.493Z,31.37
2018-06-11T06:40:04.020Z,33.20
2018-06-11T06:42:32.433Z,33.63
2018-06-11T06:45:00.880Z,33.27
2018-06-11T06:47:29.297Z,33.93
2018-06-11T06:49:57.754Z,33.27
2018-06-11T06:52:26.165Z,31.77
2018-06-11T06:54:54.582Z,32.70
2018-06-11T06:57:23.050Z,28.73
2018-06-11T06:59:51.462Z,32.47
2018-06-11T07:02:19.896Z,30.70
2018-06-11T07:04:48.334Z,32.40
2018-06-11T07:07:16.771Z,30.27
2018-06-11T07:09:45.200Z,28.63
2018-06-11T07:12:13.345Z,31.40
2018-06-11T07:14:41.772Z,32.93
2018-06-11T07:17:10.230Z,30.80
2018-06-11T07:19:38.346Z,31.73
2018-06-11T07:22:06.781Z,30.27
2018-06-11T07:24:34.904Z,32.10
2018-06-11T07:27:03.347Z,28.37
2018-06-11T07:29:31.828Z,27.03
2018-06-11T07:32:00.296Z,30.07
2018-06-11T07:34:28.516Z,26.77
2018-06-11T07:36:56.929Z,27.67
2018-06-11T07:39:25.401Z,28.97
2018-06-11T07:41:53.843Z,27.50
2018-06-11T07:44:22.299Z,26.57
2018-06-11T07:46:50.761Z,25.23
2018-06-11T07:49:19.204Z,29.37
2018-06-11T07:51:47.675Z,25.27
2018-06-11T07:54:16.100Z,27.47
2018-06-11T07:56:44.526Z,23.33
2018-06-11T07:59:12.981Z,24.77
2018-06-11T08:01:41.394Z,23.57
2018-06-11T08:04:09.839Z,23.27
2018-06-11T08:06:38.252Z,24.17
2018-06-11T08:09:08.065Z,25.83
2018-06-11T08:11:36.541Z,24.67
2018-06-11T08:14:05.045Z,23.07
2018-06-11T08:16:33.662Z,23.47
2018-06-11T08:19:02.528Z,25.60
2018-06-11T08:21:30.949Z,25.03
2018-06-11T08:23:59.407Z,28.00
2018-06-11T08:26:27.510Z,26.03
2018-06-11T08:28:55.979Z,24.83
2018-06-11T08:31:24.391Z,22.53
2018-06-11T08:33:52.815Z,22.57
2018-06-11T08:36:21.307Z,25.67
2018-06-11T08:38:49.721Z,23.37
2018-06-11T08:41:18.194Z,23.73
2018-06-11T08:43:46.619Z,23.67
2018-06-11T08:46:15.047Z,23.03
2018-06-11T08:48:43.454Z,22.90
2018-06-11T08:51:11.909Z,22.87
2018-06-11T08:53:40.349Z,21.00
2018-06-11T08:56:08.501Z,22.63
2018-06-11T08:58:36.973Z,20.90
2018-06-11T09:01:05.446Z,20.23
2018-06-11T09:03:33.881Z,22.80
2018-06-11T09:06:02.363Z,22.03
2018-06-11T09:08:30.785Z,22.57
2018-06-11T09:10:59.269Z,21.63
2018-06-11T09:13:27.705Z,20.93
2018-06-11T09:15:56.186Z,23.00
2018-06-11T09:18:24.787Z,22.20
2018-06-11T09:20:52.852Z,20.30
2018-06-11T09:23:21.325Z,22.43
2018-06-11T09:25:49.803Z,21.43
2018-06-11T09:28:18.263Z,18.17
2018-06-11T09:30:46.417Z,18.97
2018-06-11T09:33:15.605Z,19.13
2018-06-11T09:35:44.048Z,18.97
2018-06-11T09:38:12.574Z,21.57
2018-06-11T09:40:40.950Z,20.87
2018-06-11T09:43:09.423Z,18.90
2018-06-11T09:45:37.841Z,18.80
2018-06-11T09:48:06.322Z,20.57
2018-06-11T09:50:34.770Z,20.33
2018-06-11T09:53:03.272Z,20.37
2018-06-11T09:55:31.416Z,20.30
2018-06-11T09:57:59.870Z,18.17
2018-06-11T10:00:32.606Z,19.20
2018-06-11T10:03:00.765Z,17.37
2018-06-11T10:05:28.946Z,17.33
2018-06-11T10:07:57.451Z,18.83
2018-06-11T10:10:26.070Z,19.23
2018-06-11T10:12:55.044Z,20.00
2018-06-11T10:15:23.499Z,19.37
2018-06-11T10:17:51.993Z,17.93
2018-06-11T10:20:20.442Z,17.10
2018-06-11T10:22:48.615Z,17.67
2018-06-11T10:25:16.745Z,19.00
2018-06-11T10:27:45.251Z,17.53
2018-06-11T10:30:13.725Z,17.77
2018-06-11T10:32:42.177Z,17.23
2018-06-11T10:35:10.686Z,19.77
2018-06-11T10:37:39.137Z,19.30
2018-06-11T10:40:07.650Z,19.40
2018-06-11T10:42:36.134Z,20.60
2018-06-11T10:45:04.653Z,18.60
2018-06-11T10:47:33.109Z,18.17
2018-06-11T10:50:01.618Z,18.60
2018-06-11T10:52:30.073Z,17.93
2018-06-11T10:54:58.261Z,17.00
2018-06-11T10:57:26.784Z,17.93
2018-06-11T10:59:55.277Z,16.47
2018-06-11T11:02:23.758Z,16.63
2018-06-11T11:04:52.246Z,16.30
2018-06-11T11:07:20.718Z,17.10
2018-06-11T11:09:49.215Z,16.73
2018-06-11T11:12:17.672Z,16.73
2018-06-11T11:14:46.559Z,15.50
2018-06-11T11:17:15.074Z,13.87
2018-06-11T11:19:45.664Z,15.53
2018-06-11T11:22:20.132Z,15.70
2018-06-11T11:25:00.344Z,15.53
2018-06-11T11:27:28.863Z,15.90
2018-06-11T11:29:57.329Z,14.33
2018-06-11T11:32:25.798Z,15.77
2018-06-11T11:34:54.246Z,14.47
2018-06-11T11:37:22.710Z,13.90
2018-06-11T11:39:51.710Z,14.77
2018-06-11T11:42:20.226Z,14.33
2018-06-11T11:44:48.722Z,15.10
2018-06-11T11:47:17.221Z,13.43
2018-06-11T11:49:45.345Z,13.50
2018-06-11T11:52:13.851Z,14.30
2018-06-11T11:54:42.306Z,15.30
2018-06-11T11:57:10.785Z,15.63
2018-06-11T11:59:39.205Z,13.83
2018-06-11T12:02:07.686Z,14.37
2018-06-11T12:04:36.165Z,13.77
2018-06-11T12:07:04.632Z,14.57
2018-06-11T12:09:33.089Z,13.27
2018-06-11T12:12:01.546Z,13.47
2018-06-11T12:14:29.990Z,13.83
2018-06-11T12:16:58.458Z,15.30
2018-06-11T12:19:26.951Z,13.77
2018-06-11T12:21:55.110Z,15.40
2018-06-11T12:24:23.567Z,15.67
2018-06-11T12:26:52.043Z,17.47
2018-06-11T12:29:20.521Z,16.67
2018-06-11T12:31:49.038Z,16.93
2018-06-11T12:34:17.570Z,19.53
2018-06-11T12:36:46.816Z,21.13
2018-06-11T12:39:15.249Z,24.30
2018-06-11T12:41:43.697Z,28.27
2018-06-11T12:44:11.829Z,29.13
2018-06-11T12:46:40.248Z,35.23
2018-06-11T12:49:08.408Z,40.50
2018-06-11T12:51:36.846Z,39.00
2018-06-11T12:54:05.320Z,43.00
2018-06-11T12:56:33.782Z,48.97
2018-06-11T12:59:02.244Z,48.20
2018-06-11T13:01:30.747Z,46.80
2018-06-11T13:03:59.208Z,51.20
2018-06-11T13:06:27.740Z,57.37
2018-06-11T13:08:56.225Z,54.37
2018-06-11T13:11:24.666Z,56.33
2018-06-11T13:13:53.102Z,51.30
2018-06-11T13:16:22.778Z,21.23
2018-06-11T13:18:51.262Z,15.13
2018-06-11T13:21:19.745Z,13.57
2018-06-11T13:23:48.243Z,13.07
2018-06-11T13:26:16.693Z,17.33
2018-06-11T13:28:45.320Z,112.63
2018-06-11T13:31:13.866Z,17.37
2018-06-11T13:33:42.498Z,14.47
2018-06-11T13:36:11.004Z,41.73
2018-06-11T13:38:40.475Z,17.67
2018-06-11T13:41:08.933Z,15.10
2018-06-11T13:43:38.231Z,10.90
2018-06-11T13:46:07.350Z,11.67
2018-06-11T13:48:36.839Z,13.17
2018-06-11T13:51:05.393Z,10.43
2018-06-11T13:53:33.906Z,8.33
2018-06-11T13:56:02.394Z,10.10
2018-06-11T13:58:30.822Z,9.27
2018-06-11T14:00:59.595Z,10.77
2018-06-11T14:03:28.127Z,9.17
2018-06-11T14:05:56.650Z,9.17
2018-06-11T14:08:25.167Z,9.90
2018-06-11T14:10:53.745Z,8.67
2018-06-11T14:13:22.162Z,9.77
2018-06-11T14:15:50.618Z,11.33
2018-06-11T14:18:19.021Z,9.67
2018-06-11T14:20:47.447Z,8.30
2018-06-11T14:23:15.871Z,15.33
2018-06-11T14:25:44.443Z,9.30
2018-06-11T14:28:12.882Z,9.73
2018-06-11T14:30:41.326Z,9.90
2018-06-11T14:33:09.733Z,10.10
2018-06-11T14:35:38.226Z,13.63
2018-06-11T14:38:06.682Z,9.47
2018-06-11T14:40:34.828Z,11.73
2018-06-11T14:43:04.058Z,13.93
2018-06-11T14:45:32.497Z,14.43
2018-06-11T14:48:00.940Z,9.47
2018-06-11T14:50:29.393Z,11.30
2018-06-11T14:52:57.826Z,10.50
2018-06-11T14:55:26.255Z,14.63
2018-06-11T14:57:54.376Z,10.20
2018-06-11T15:00:22.839Z,10.33
2018-06-11T15:03:07.145Z,13.60
2018-06-11T15:05:35.662Z,11.97
2018-06-11T15:08:04.188Z,9.40
2018-06-11T15:10:32.734Z,10.10
2018-06-11T15:13:01.275Z,9.93
2018-06-11T15:15:29.839Z,10.70
2018-06-11T15:17:58.346Z,12.60
2018-06-11T15:20:26.939Z,12.67
2018-06-11T15:22:55.519Z,12.13
2018-06-11T15:25:24.018Z,12.53
2018-06-11T15:27:52.453Z,9.90
2018-06-11T15:30:20.878Z,7.77
2018-06-11T15:32:49.325Z,8.90
2018-06-11T15:35:17.787Z,9.33
2018-06-11T15:37:46.285Z,9.87
2018-06-11T15:40:14.717Z,10.70
2018-06-11T15:42:43.209Z,9.83
2018-06-11T15:45:11.673Z,7.53
2018-06-11T15:47:40.191Z,7.60
2018-06-11T15:50:08.629Z,8.47
2018-06-11T15:52:37.129Z,9.03
2018-06-11T15:55:05.690Z,8.10
2018-06-11T15:57:34.241Z,8.00
2018-06-11T16:00:02.827Z,9.47
2018-06-11T16:02:31.457Z,8.67
2018-06-11T16:04:59.974Z,7.47
2018-06-11T16:07:28.624Z,8.97
2018-06-11T16:09:57.164Z,6.03
2018-06-11T16:12:25.692Z,7.87
2018-06-11T16:14:54.169Z,6.97
2018-06-11T16:17:22.654Z,7.27
2018-06-11T16:19:51.207Z,6.70
2018-06-11T16:22:20.177Z,6.07
2018-06-11T16:24:48.730Z,5.80
2018-06-11T16:27:17.461Z,8.60
2018-06-11T16:29:46.019Z,5.73
2018-06-11T16:32:14.548Z,5.10
2018-06-11T16:34:43.119Z,5.03
2018-06-11T16:37:11.663Z,4.90
2018-06-11T16:39:40.275Z,4.60
2018-06-11T16:42:08.824Z,5.53
2018-06-11T16:44:37.362Z,6.53
2018-06-11T16:47:05.876Z,6.00
2018-06-11T16:49:34.105Z,8.03
2018-06-11T16:52:02.643Z,8.70
2018-06-11T16:54:31.140Z,3.93
2018-06-11T16:56:59.769Z,4.73
2018-06-11T16:59:28.370Z,4.50
2018-06-11T17:01:56.958Z,4.30
2018-06-11T17:04:25.170Z,4.47
2018-06-11T17:06:53.640Z,5.73
2018-06-11T17:09:22.230Z,4.50
2018-06-11T17:11:50.775Z,5.53
2018-06-11T17:14:19.308Z,6.93
2018-06-11T17:16:47.841Z,7.73
2018-06-11T17:19:16.054Z,8.37
2018-06-11T17:21:44.590Z,6.33
2018-06-11T17:24:13.135Z,6.50
2018-06-11T17:26:41.679Z,7.10
2018-06-11T17:29:10.186Z,7.50
2018-06-11T17:31:38.782Z,8.60
2018-06-11T17:34:08.609Z,6.80
2018-06-11T17:36:37.177Z,7.97
2018-06-11T17:39:07.991Z,11.00
2018-06-11T17:41:36.582Z,8.60
2018-06-11T17:44:05.181Z,7.70
2018-06-11T17:46:33.826Z,7.63
2018-06-11T17:49:02.419Z,7.77
2018-06-11T17:51:30.957Z,7.67
2018-06-11T17:53:59.526Z,7.00
2018-06-11T17:56:28.042Z,8.60
2018-06-11T17:58:56.589Z,8.50
2018-06-11T18:01:25.154Z,7.93
2018-06-11T18:03:53.706Z,7.30
2018-06-11T18:06:22.210Z,7.90
2018-06-11T18:08:50.709Z,7.17
2018-06-11T18:11:19.158Z,7.40
2018-06-11T18:13:47.570Z,8.53
2018-06-11T18:16:16.014Z,7.03
2018-06-11T18:18:44.427Z,7.90
2018-06-11T18:21:12.852Z,9.47
2018-06-11T18:23:41.754Z,8.87
2018-06-11T18:26:10.250Z,7.97
2018-06-11T18:28:38.678Z,7.43
2018-06-11T18:31:07.121Z,10.00
2018-06-11T18:33:35.562Z,9.43
2018-06-11T18:36:04.778Z,7.77
2018-06-11T18:38:33.232Z,8.10
2018-06-11T18:41:01.341Z,7.17
2018-06-11T18:43:29.786Z,6.90
2018-06-11T18:45:58.206Z,7.50
2018-06-11T18:48:26.661Z,8.27
2018-06-11T18:50:55.355Z,6.83
2018-06-11T18:53:23.812Z,8.73
2018-06-11T18:55:52.349Z,7.33
2018-06-11T18:58:20.817Z,8.17
2018-06-11T19:00:49.519Z,9.07
2018-06-11T19:03:18.269Z,6.80
2018-06-11T19:05:46.706Z,8.90
2018-06-11T19:08:15.178Z,9.47
2018-06-11T19:10:43.633Z,11.40
2018-06-11T19:13:12.091Z,11.30
2018-06-11T19:15:40.528Z,10.50
2018-06-11T19:18:09.065Z,9.43
2018-06-11T19:20:37.475Z,8.60
2018-06-11T19:23:05.910Z,10.07
2018-06-11T19:25:34.402Z,16.30
2018-06-11T19:28:02.903Z,8.93
2018-06-11T19:30:31.590Z,9.07
2018-06-11T19:33:00.072Z,10.80
2018-06-11T19:35:28.683Z,13.03
2018-06-11T19:37:57.008Z,13.30
2018-06-11T19:40:25.501Z,15.80
2018-06-11T19:42:53.927Z,13.13
2018-06-11T19:45:23.208Z,11.57
2018-06-11T19:47:52.186Z,12.17
2018-06-11T19:50:20.726Z,14.63
2018-06-11T19:52:49.150Z,12.17
2018-06-11T19:55:17.610Z,11.93
2018-06-11T19:57:46.037Z,12.53
2018-06-11T20:00:14.174Z,12.07
2018-06-11T20:02:42.589Z,15.30
2018-06-11T20:05:11.081Z,13.17
2018-06-11T20:07:39.496Z,13.33
2018-06-11T20:10:07.965Z,13.00
2018-06-11T20:12:36.382Z,22.20
2018-06-11T20:15:04.910Z,11.87
2018-06-11T20:17:33.342Z,9.97
2018-06-11T20:20:01.889Z,12.63
2018-06-11T20:22:30.301Z,12.77
2018-06-11T20:24:58.981Z,11.37
2018-06-11T20:27:27.428Z,11.93
2018-06-11T20:29:55.871Z,10.20
2018-06-11T20:32:24.340Z,12.70
2018-06-11T20:34:52.771Z,11.63
2018-06-11T20:37:21.241Z,10.77
2018-06-11T20:39:49.661Z,10.87
2018-06-11T20:42:18.061Z,11.57
2018-06-11T20:44:46.560Z,12.30
2018-06-11T20:47:14.913Z,12.40
2018-06-11T20:49:43.397Z,11.53
2018-06-11T20:52:11.823Z,12.90
2018-06-11T20:54:40.257Z,10.07
2018-06-11T20:57:08.694Z,11.23
2018-06-11T20:59:37.138Z,14.50
2018-06-11T21:02:05.622Z,12.60
2018-06-11T21:04:34.047Z,12.80
2018-06-11T21:07:02.571Z,14.00
2018-06-11T21:09:30.996Z,13.83
2018-06-11T21:11:59.436Z,16.27
2018-06-11T21:14:27.866Z,14.93
2018-06-11T21:16:56.314Z,13.70
2018-06-11T21:19:24.725Z,13.27
2018-06-11T21:21:53.204Z,17.00
2018-06-11T21:24:21.666Z,19.87
2018-06-11T21:26:50.115Z,13.40
2018-06-11T21:29:18.557Z,14.30
2018-06-11T21:31:47.002Z,15.10
2018-06-11T21:34:15.423Z,12.37
2018-06-11T21:36:43.896Z,12.40
2018-06-11T21:39:12.432Z,13.17
2018-06-11T21:41:40.926Z,17.60
2018-06-11T21:44:09.357Z,11.33
2018-06-11T21:46:37.805Z,10.00
2018-06-11T21:49:06.236Z,10.37
2018-06-11T21:51:34.660Z,12.50
2018-06-11T21:54:03.094Z,12.27
2018-06-11T21:56:31.569Z,12.67
2018-06-11T21:59:00.026Z,14.10
2018-06-11T22:01:28.509Z,14.50
2018-06-11T22:03:57.034Z,11.40
2018-06-11T22:06:25.455Z,12.30
2018-06-11T22:08:53.933Z,12.73
2018-06-11T22:11:22.386Z,12.87
2018-06-11T22:13:50.815Z,11.87
2018-06-11T22:16:19.274Z,15.93
2018-06-11T22:18:47.693Z,14.47
2018-06-11T22:21:16.133Z,17.60
2018-06-11T22:23:44.558Z,12.97
2018-06-11T22:26:13.015Z,13.00
2018-06-11T22:28:41.421Z,14.80
2018-06-11T22:31:09.897Z,12.97
2018-06-11T22:33:38.357Z,12.17
2018-06-11T22:36:06.521Z,15.30
2018-06-11T22:38:34.937Z,12.87
2018-06-11T22:41:03.382Z,15.93
2018-06-11T22:43:31.818Z,13.37
2018-06-11T22:46:00.281Z,19.57
2018-06-11T22:48:28.709Z,19.40
2018-06-11T22:50:57.161Z,16.73
2018-06-11T22:53:25.625Z,15.87
2018-06-11T22:55:54.065Z,16.77
2018-06-11T22:58:22.501Z,25.43
2018-06-11T23:00:50.977Z,22.30
2018-06-11T23:03:19.409Z,22.23
2018-06-11T23:05:47.564Z,25.57
2018-06-11T23:08:15.998Z,23.10
2018-06-11T23:10:44.447Z,35.40
2018-06-11T23:13:12.585Z,42.93
2018-06-11T23:15:41.022Z,48.13
2018-06-11T23:18:09.478Z,33.20
2018-06-11T23:20:37.617Z,34.10
2018-06-11T23:23:06.132Z,31.80
2018-06-11T23:25:34.554Z,32.57
2018-06-11T23:28:03.098Z,44.37
2018-06-11T23:30:31.509Z,52.43
2018-06-11T23:32:59.970Z,54.13
2018-06-11T23:35:28.434Z,54.33
2018-06-11T23:37:56.868Z,48.50
2018-06-11T23:40:25.326Z,55.87
2018-06-11T23:42:53.786Z,61.60
2018-06-11T23:45:22.240Z,52.07
2018-06-11T23:47:50.681Z,55.00
2018-06-11T23:50:19.131Z,56.30
2018-06-11T23:52:47.598Z,73.63
2018-06-11T23:55:16.037Z,59.93
2018-06-11T23:57:44.466Z,58.10
